sensor_id;sensor_type;location;lat;lon;timestamp;pressure;altitude;pressure_sealevel;temperature;humidity
46448;BME280;32145;50.390;30.778;2023-05-11T00:02:31;100854.91;;;4.19;57.19
46448;BME280;32145;50.390;30.778;2023-05-11T00:05:27;100852.72;;;4.23;57.31
46448;BME280;32145;50.390;30.778;2023-05-11T00:08:24;100858.63;;;4.27;57.01
46448;BME280;32145;50.390;30.778;2023-05-11T00:11:18;100857.28;;;4.31;57.69
46448;BME280;32145;50.390;30.778;2023-05-11T00:14:13;100860.44;;;4.34;57.78
46448;BME280;32145;50.390;30.778;2023-05-11T00:17:10;100860.81;;;4.40;58.10
46448;BME280;32145;50.390;30.778;2023-05-11T00:20:07;100855.22;;;4.41;58.14
46448;BME280;32145;50.390;30.778;2023-05-11T00:23:04;100853.22;;;4.43;58.63
46448;BME280;32145;50.390;30.778;2023-05-11T00:26:00;100860.97;;;4.46;58.94
46448;BME280;32145;50.390;30.778;2023-05-11T00:28:57;100853.72;;;4.47;58.70
46448;BME280;32145;50.390;30.778;2023-05-11T00:31:53;100856.59;;;4.45;59.06
46448;BME280;32145;50.390;30.778;2023-05-11T00:34:51;100855.59;;;4.46;59.37
46448;BME280;32145;50.390;30.778;2023-05-11T00:37:47;100857.59;;;4.44;59.71
46448;BME280;32145;50.390;30.778;2023-05-11T00:40:43;100855.75;;;4.45;59.43
46448;BME280;32145;50.390;30.778;2023-05-11T00:43:40;100854.91;;;4.44;59.89
46448;BME280;32145;50.390;30.778;2023-05-11T00:46:36;100858.59;;;4.43;59.72
46448;BME280;32145;50.390;30.778;2023-05-11T00:49:32;100853.56;;;4.40;59.95
46448;BME280;32145;50.390;30.778;2023-05-11T00:52:28;100856.41;;;4.38;59.99
46448;BME280;32145;50.390;30.778;2023-05-11T00:55:23;100856.78;;;4.35;59.61
46448;BME280;32145;50.390;30.778;2023-05-11T00:58:19;100855.25;;;4.33;59.66
46448;BME280;32145;50.390;30.778;2023-05-11T01:01:16;100850.03;;;4.31;59.43
46448;BME280;32145;50.390;30.778;2023-05-11T01:04:10;100858.28;;;4.30;59.42
46448;BME280;32145;50.390;30.778;2023-05-11T01:07:08;100853.25;;;4.27;59.90
46448;BME280;32145;50.390;30.778;2023-05-11T01:10:14;100855.25;;;4.24;60.36
46448;BME280;32145;50.390;30.778;2023-05-11T01:13:16;100854.91;;;4.19;60.39
46448;BME280;32145;50.390;30.778;2023-05-11T01:16:15;100857.28;;;4.14;59.92
46448;BME280;32145;50.390;30.778;2023-05-11T01:19:17;100863.63;;;4.13;60.71
46448;BME280;32145;50.390;30.778;2023-05-11T01:22:32;100854.91;;;4.11;60.91
46448;BME280;32145;50.390;30.778;2023-05-11T01:25:48;100862.28;;;4.09;60.85
46448;BME280;32145;50.390;30.778;2023-05-11T01:29:03;100868.00;;;4.06;61.59
46448;BME280;32145;50.390;30.778;2023-05-11T01:32:05;100863.59;;;3.96;61.53
46448;BME280;32145;50.390;30.778;2023-05-11T01:35:06;100870.63;;;3.89;61.09
46448;BME280;32145;50.390;30.778;2023-05-11T01:38:02;100867.44;;;3.85;61.22
46448;BME280;32145;50.390;30.778;2023-05-11T01:41:00;100870.47;;;3.82;60.83
46448;BME280;32145;50.390;30.778;2023-05-11T01:43:59;100865.25;;;3.81;61.55
46448;BME280;32145;50.390;30.778;2023-05-11T01:46:57;100868.94;;;3.80;61.80
46448;BME280;32145;50.390;30.778;2023-05-11T01:49:55;100861.91;;;3.79;61.46
46448;BME280;32145;50.390;30.778;2023-05-11T01:52:53;100863.91;;;3.77;61.58
46448;BME280;32145;50.390;30.778;2023-05-11T01:55:50;100867.59;;;3.76;61.69
46448;BME280;32145;50.390;30.778;2023-05-11T01:58:48;100863.25;;;3.74;61.53
46448;BME280;32145;50.390;30.778;2023-05-11T02:01:46;100869.59;;;3.73;61.33
46448;BME280;32145;50.390;30.778;2023-05-11T02:04:41;100872.28;;;3.73;61.66
46448;BME280;32145;50.390;30.778;2023-05-11T02:07:41;100866.75;;;3.75;61.97
46448;BME280;32145;50.390;30.778;2023-05-11T02:10:37;100864.91;;;3.67;61.79
46448;BME280;32145;50.390;30.778;2023-05-11T02:13:34;100875.63;;;3.67;61.59
46448;BME280;32145;50.390;30.778;2023-05-11T02:16:30;100878.16;;;3.69;61.47
46448;BME280;32145;50.390;30.778;2023-05-11T02:19:24;100869.94;;;3.70;61.53
46448;BME280;32145;50.390;30.778;2023-05-11T02:22:20;100878.97;;;3.69;62.01
46448;BME280;32145;50.390;30.778;2023-05-11T02:25:17;100877.63;;;3.65;61.59
46448;BME280;32145;50.390;30.778;2023-05-11T02:28:11;100869.56;;;3.65;61.79
46448;BME280;32145;50.390;30.778;2023-05-11T02:31:09;100870.25;;;3.67;61.98
46448;BME280;32145;50.390;30.778;2023-05-11T02:34:08;100871.94;;;3.68;62.08
46448;BME280;32145;50.390;30.778;2023-05-11T02:37:10;100875.63;;;3.67;62.07
46448;BME280;32145;50.390;30.778;2023-05-11T02:40:09;100875.66;;;3.76;62.92
46448;BME280;32145;50.390;30.778;2023-05-11T02:43:11;100886.03;;;3.70;61.96
46448;BME280;32145;50.390;30.778;2023-05-11T02:46:14;100885.03;;;3.71;61.53
46448;BME280;32145;50.390;30.778;2023-05-11T02:49:11;100881.66;;;3.69;61.46
46448;BME280;32145;50.390;30.778;2023-05-11T02:52:10;100890.53;;;3.70;61.83
46448;BME280;32145;50.390;30.778;2023-05-11T02:55:09;100888.03;;;3.68;61.74
46448;BME280;32145;50.390;30.778;2023-05-11T02:58:08;100889.53;;;3.71;62.00
46448;BME280;32145;50.390;30.778;2023-05-11T03:01:05;100886.69;;;3.72;62.34
46448;BME280;32145;50.390;30.778;2023-05-11T03:04:03;100894.41;;;3.76;62.48
46448;BME280;32145;50.390;30.778;2023-05-11T03:06:57;100894.09;;;3.79;62.37
46448;BME280;32145;50.390;30.778;2023-05-11T03:09:52;100901.47;;;3.85;62.19
46448;BME280;32145;50.390;30.778;2023-05-11T03:12:46;100896.47;;;3.90;61.97
46448;BME280;32145;50.390;30.778;2023-05-11T03:15:43;100902.03;;;3.97;62.21
46448;BME280;32145;50.390;30.778;2023-05-11T03:18:40;100898.00;;;4.01;62.46
46448;BME280;32145;50.390;30.778;2023-05-11T03:21:37;100905.38;;;4.07;62.68
46448;BME280;32145;50.390;30.778;2023-05-11T03:24:35;100903.22;;;4.11;62.49
46448;BME280;32145;50.390;30.778;2023-05-11T03:27:32;100915.47;;;4.13;62.58
46448;BME280;32145;50.390;30.778;2023-05-11T03:30:29;100915.78;;;4.19;62.25
46448;BME280;32145;50.390;30.778;2023-05-11T03:33:27;100918.84;;;4.24;62.30
46448;BME280;32145;50.390;30.778;2023-05-11T03:36:24;100908.94;;;4.33;62.51
46448;BME280;32145;50.390;30.778;2023-05-11T03:39:21;100918.53;;;4.44;62.42
46448;BME280;32145;50.390;30.778;2023-05-11T03:42:19;100915.00;;;4.51;62.42
46448;BME280;32145;50.390;30.778;2023-05-11T03:45:16;100924.75;;;4.69;62.79
46448;BME280;32145;50.390;30.778;2023-05-11T03:48:14;100928.06;;;4.80;61.87
46448;BME280;32145;50.390;30.778;2023-05-11T03:51:13;100936.28;;;4.95;61.78
46448;BME280;32145;50.390;30.778;2023-05-11T03:54:09;100942.47;;;5.12;61.76
46448;BME280;32145;50.390;30.778;2023-05-11T03:57:07;100940.75;;;5.27;61.33
46448;BME280;32145;50.390;30.778;2023-05-11T04:00:05;100937.38;;;5.42;61.27
46448;BME280;32145;50.390;30.778;2023-05-11T04:03:03;100942.03;;;5.48;61.37
46448;BME280;32145;50.390;30.778;2023-05-11T04:06:00;100938.50;;;5.56;61.51
46448;BME280;32145;50.390;30.778;2023-05-11T04:08:58;100950.00;;;5.82;61.23
46448;BME280;32145;50.390;30.778;2023-05-11T04:11:54;100941.97;;;6.05;60.88
46448;BME280;32145;50.390;30.778;2023-05-11T04:14:50;100956.31;;;6.29;61.12
46448;BME280;32145;50.390;30.778;2023-05-11T04:17:46;100949.91;;;6.53;60.72
46448;BME280;32145;50.390;30.778;2023-05-11T04:20:43;100942.72;;;6.69;60.33
46448;BME280;32145;50.390;30.778;2023-05-11T04:23:39;100947.88;;;6.79;60.24
46448;BME280;32145;50.390;30.778;2023-05-11T04:26:37;100954.78;;;6.96;60.26
46448;BME280;32145;50.390;30.778;2023-05-11T04:29:33;100957.78;;;7.17;59.22
46448;BME280;32145;50.390;30.778;2023-05-11T04:32:27;100958.28;;;7.35;58.29
46448;BME280;32145;50.390;30.778;2023-05-11T04:35:21;100968.28;;;7.57;58.21
46448;BME280;32145;50.390;30.778;2023-05-11T04:38:16;100965.63;;;7.72;57.17
46448;BME280;32145;50.390;30.778;2023-05-11T04:41:10;100965.97;;;7.84;55.38
46448;BME280;32145;50.390;30.778;2023-05-11T04:44:06;100957.19;;;7.97;54.51
46448;BME280;32145;50.390;30.778;2023-05-11T04:47:00;100954.19;;;8.07;53.00
46448;BME280;32145;50.390;30.778;2023-05-11T04:49:54;100954.97;;;8.22;52.36
46448;BME280;32145;50.390;30.778;2023-05-11T04:52:49;100958.28;;;8.40;51.84
46448;BME280;32145;50.390;30.778;2023-05-11T04:55:43;100958.06;;;8.56;50.97
46448;BME280;32145;50.390;30.778;2023-05-11T04:58:37;100957.97;;;8.71;50.31
46448;BME280;32145;50.390;30.778;2023-05-11T05:01:35;100956.69;;;8.89;49.49
46448;BME280;32145;50.390;30.778;2023-05-11T05:04:31;100958.91;;;9.07;49.13
46448;BME280;32145;50.390;30.778;2023-05-11T05:07:28;100963.59;;;9.27;48.25
46448;BME280;32145;50.390;30.778;2023-05-11T05:10:24;100961.63;;;9.43;48.05
46448;BME280;32145;50.390;30.778;2023-05-11T05:13:20;100968.16;;;9.55;46.62
46448;BME280;32145;50.390;30.778;2023-05-11T05:16:17;100966.09;;;9.64;45.99
46448;BME280;32145;50.390;30.778;2023-05-11T05:19:14;100965.13;;;9.78;46.00
46448;BME280;32145;50.390;30.778;2023-05-11T05:22:11;100963.75;;;9.96;45.95
46448;BME280;32145;50.390;30.778;2023-05-11T05:25:08;100969.00;;;10.11;45.26
46448;BME280;32145;50.390;30.778;2023-05-11T05:28:04;100962.81;;;10.24;44.03
46448;BME280;32145;50.390;30.778;2023-05-11T05:31:00;100968.66;;;10.35;43.70
46448;BME280;32145;50.390;30.778;2023-05-11T05:33:56;100973.69;;;10.44;42.93
46448;BME280;32145;50.390;30.778;2023-05-11T05:36:54;100965.81;;;10.56;43.19
46448;BME280;32145;50.390;30.778;2023-05-11T05:39:51;100961.03;;;10.72;42.91
46448;BME280;32145;50.390;30.778;2023-05-11T05:42:47;100960.41;;;10.90;42.18
46448;BME280;32145;50.390;30.778;2023-05-11T05:45:37;100961.22;;;11.11;41.32
46448;BME280;32145;50.390;30.778;2023-05-11T05:48:31;100960.59;;;11.23;41.50
46448;BME280;32145;50.390;30.778;2023-05-11T05:51:26;100963.47;;;11.28;40.91
46448;BME280;32145;50.390;30.778;2023-05-11T05:54:21;100964.72;;;11.32;41.10
46448;BME280;32145;50.390;30.778;2023-05-11T05:57:16;100960.31;;;11.44;40.66
46448;BME280;32145;50.390;30.778;2023-05-11T06:00:11;100959.44;;;11.57;40.03
46448;BME280;32145;50.390;30.778;2023-05-11T06:03:05;100954.63;;;11.66;40.41
46448;BME280;32145;50.390;30.778;2023-05-11T06:05:59;100957.06;;;11.81;39.70
46448;BME280;32145;50.390;30.778;2023-05-11T06:08:54;100958.91;;;11.94;39.53
46448;BME280;32145;50.390;30.778;2023-05-11T06:11:50;100964.28;;;12.15;38.72
46448;BME280;32145;50.390;30.778;2023-05-11T06:14:46;100958.31;;;12.31;38.38
46448;BME280;32145;50.390;30.778;2023-05-11T06:17:42;100956.94;;;12.47;38.61
46448;BME280;32145;50.390;30.778;2023-05-11T06:20:38;100969.47;;;12.55;37.60
46448;BME280;32145;50.390;30.778;2023-05-11T06:23:35;100961.03;;;12.63;37.11
46448;BME280;32145;50.390;30.778;2023-05-11T06:26:31;100960.63;;;12.60;36.62
46448;BME280;32145;50.390;30.778;2023-05-11T06:29:29;100967.34;;;12.57;35.82
46448;BME280;32145;50.390;30.778;2023-05-11T06:32:25;100962.91;;;12.63;35.53
46448;BME280;32145;50.390;30.778;2023-05-11T06:35:21;100963.69;;;12.70;35.14
46448;BME280;32145;50.390;30.778;2023-05-11T06:38:19;100963.59;;;12.84;34.75
46448;BME280;32145;50.390;30.778;2023-05-11T06:41:15;100970.88;;;12.90;34.72
46448;BME280;32145;50.390;30.778;2023-05-11T06:44:11;100966.28;;;12.91;34.44
46448;BME280;32145;50.390;30.778;2023-05-11T06:47:09;100962.59;;;13.04;34.60
46448;BME280;32145;50.390;30.778;2023-05-11T06:50:06;100972.59;;;13.10;34.43
46448;BME280;32145;50.390;30.778;2023-05-11T06:53:02;100965.75;;;13.26;34.05
46448;BME280;32145;50.390;30.778;2023-05-11T06:55:58;100963.25;;;13.43;33.45
46448;BME280;32145;50.390;30.778;2023-05-11T06:58:54;100964.88;;;13.51;33.21
46448;BME280;32145;50.390;30.778;2023-05-11T07:01:51;100971.25;;;13.63;33.23
46448;BME280;32145;50.390;30.778;2023-05-11T07:04:46;100965.13;;;13.68;32.57
46448;BME280;32145;50.390;30.778;2023-05-11T07:07:40;100965.72;;;13.70;32.16
46448;BME280;32145;50.390;30.778;2023-05-11T07:10:35;100953.69;;;13.78;32.78
46448;BME280;32145;50.390;30.778;2023-05-11T07:13:29;100961.00;;;13.77;31.78
46448;BME280;32145;50.390;30.778;2023-05-11T07:16:23;100968.66;;;13.87;32.19
46448;BME280;32145;50.390;30.778;2023-05-11T07:19:18;100964.31;;;13.98;31.48
46448;BME280;32145;50.390;30.778;2023-05-11T07:22:13;100969.22;;;14.08;30.95
46448;BME280;32145;50.390;30.778;2023-05-11T07:25:08;100966.56;;;14.20;30.42
46448;BME280;32145;50.390;30.778;2023-05-11T07:28:02;100965.63;;;14.26;30.05
46448;BME280;32145;50.390;30.778;2023-05-11T07:30:56;100954.16;;;14.36;30.08
46448;BME280;32145;50.390;30.778;2023-05-11T07:33:51;100960.34;;;14.43;29.42
46448;BME280;32145;50.390;30.778;2023-05-11T07:36:45;100960.72;;;14.47;27.96
46448;BME280;32145;50.390;30.778;2023-05-11T07:39:41;100955.41;;;14.52;28.59
46448;BME280;32145;50.390;30.778;2023-05-11T07:42:35;100947.72;;;14.73;28.92
46448;BME280;32145;50.390;30.778;2023-05-11T07:45:30;100967.13;;;14.84;27.96
46448;BME280;32145;50.390;30.778;2023-05-11T07:48:26;100953.63;;;14.70;26.65
46448;BME280;32145;50.390;30.778;2023-05-11T07:51:23;100947.44;;;14.63;26.81
46448;BME280;32145;50.390;30.778;2023-05-11T07:54:19;100961.31;;;14.49;28.30
46448;BME280;32145;50.390;30.778;2023-05-11T07:57:17;100955.66;;;14.20;28.61
46448;BME280;32145;50.390;30.778;2023-05-11T08:00:14;100948.38;;;14.14;27.90
46448;BME280;32145;50.390;30.778;2023-05-11T08:03:10;100946.41;;;14.21;28.64
46448;BME280;32145;50.390;30.778;2023-05-11T08:06:07;100944.66;;;14.39;28.52
46448;BME280;32145;50.390;30.778;2023-05-11T08:09:03;100923.84;;;14.56;28.60
46448;BME280;32145;50.390;30.778;2023-05-11T08:11:59;100938.75;;;14.85;28.03
46448;BME280;32145;50.390;30.778;2023-05-11T08:14:57;100939.34;;;14.99;27.79
46448;BME280;32145;50.390;30.778;2023-05-11T08:17:53;100937.69;;;14.98;27.67
46448;BME280;32145;50.390;30.778;2023-05-11T08:20:49;100936.72;;;14.92;28.21
46448;BME280;32145;50.390;30.778;2023-05-11T08:23:46;100946.22;;;14.89;28.03
46448;BME280;32145;50.390;30.778;2023-05-11T08:26:42;100940.84;;;14.82;27.93
46448;BME280;32145;50.390;30.778;2023-05-11T08:29:38;100939.66;;;14.78;28.49
46448;BME280;32145;50.390;30.778;2023-05-11T08:32:36;100943.97;;;14.98;28.19
46448;BME280;32145;50.390;30.778;2023-05-11T08:35:32;100935.19;;;15.20;27.84
46448;BME280;32145;50.390;30.778;2023-05-11T08:38:26;100936.56;;;15.46;26.63
46448;BME280;32145;50.390;30.778;2023-05-11T08:41:21;100938.84;;;15.91;25.95
46448;BME280;32145;50.390;30.778;2023-05-11T08:44:15;100925.28;;;15.96;25.38
46448;BME280;32145;50.390;30.778;2023-05-11T08:47:10;100923.84;;;16.22;25.16
46448;BME280;32145;50.390;30.778;2023-05-11T08:50:08;100930.53;;;16.44;24.85
46448;BME280;32145;50.390;30.778;2023-05-11T08:53:04;100928.38;;;16.80;25.23
46448;BME280;32145;50.390;30.778;2023-05-11T08:56:02;100931.03;;;16.58;24.01
46448;BME280;32145;50.390;30.778;2023-05-11T08:58:59;100929.09;;;16.24;24.21
46448;BME280;32145;50.390;30.778;2023-05-11T09:01:57;100929.88;;;16.07;24.10
46448;BME280;32145;50.390;30.778;2023-05-11T09:04:54;100924.66;;;15.94;24.46
46448;BME280;32145;50.390;30.778;2023-05-11T09:07:58;100928.94;;;15.90;25.72
46448;BME280;32145;50.390;30.778;2023-05-11T09:10:53;100930.75;;;15.96;25.10
46448;BME280;32145;50.390;30.778;2023-05-11T09:13:48;100932.53;;;15.90;24.91
46448;BME280;32145;50.390;30.778;2023-05-11T09:16:42;100925.41;;;15.89;25.89
46448;BME280;32145;50.390;30.778;2023-05-11T09:19:56;100923.16;;;15.98;25.03
46448;BME280;32145;50.390;30.778;2023-05-11T09:22:50;100917.78;;;16.03;24.69
46448;BME280;32145;50.390;30.778;2023-05-11T09:25:48;100913.97;;;16.04;24.40
46448;BME280;32145;50.390;30.778;2023-05-11T09:28:48;100930.03;;;15.89;24.42
46448;BME280;32145;50.390;30.778;2023-05-11T09:31:45;100905.59;;;15.70;24.15
46448;BME280;32145;50.390;30.778;2023-05-11T09:34:42;100906.53;;;15.76;24.25
46448;BME280;32145;50.390;30.778;2023-05-11T09:37:38;100903.19;;;15.85;26.21
46448;BME280;32145;50.390;30.778;2023-05-11T09:40:36;100904.00;;;15.98;24.23
46448;BME280;32145;50.390;30.778;2023-05-11T09:43:34;100901.66;;;16.19;23.99
46448;BME280;32145;50.390;30.778;2023-05-11T09:46:28;100898.66;;;16.38;24.41
46448;BME280;32145;50.390;30.778;2023-05-11T09:49:28;100885.84;;;16.55;24.03
46448;BME280;32145;50.390;30.778;2023-05-11T09:52:22;100877.59;;;16.90;23.87
46448;BME280;32145;50.390;30.778;2023-05-11T09:55:16;100879.19;;;17.25;23.86
46448;BME280;32145;50.390;30.778;2023-05-11T09:58:11;100867.47;;;17.52;23.93
46448;BME280;32145;50.390;30.778;2023-05-11T10:01:08;100872.34;;;17.72;23.11
46448;BME280;32145;50.390;30.778;2023-05-11T10:04:05;100870.38;;;17.68;23.96
46448;BME280;32145;50.390;30.778;2023-05-11T10:07:01;100871.63;;;17.82;23.90
46448;BME280;32145;50.390;30.778;2023-05-11T10:09:59;100875.25;;;17.88;24.01
46448;BME280;32145;50.390;30.778;2023-05-11T10:12:57;100865.06;;;17.83;25.13
46448;BME280;32145;50.390;30.778;2023-05-11T10:15:55;100873.56;;;17.59;24.55
46448;BME280;32145;50.390;30.778;2023-05-11T10:18:53;100874.22;;;17.22;24.23
46448;BME280;32145;50.390;30.778;2023-05-11T10:21:47;100868.47;;;16.84;24.91
46448;BME280;32145;50.390;30.778;2023-05-11T10:24:42;100866.97;;;16.76;24.75
46448;BME280;32145;50.390;30.778;2023-05-11T10:27:38;100865.88;;;17.11;24.38
46448;BME280;32145;50.390;30.778;2023-05-11T10:30:34;100868.22;;;17.25;24.15
46448;BME280;32145;50.390;30.778;2023-05-11T10:33:31;100863.63;;;17.08;23.68
46448;BME280;32145;50.390;30.778;2023-05-11T10:36:30;100862.03;;;17.12;23.51
46448;BME280;32145;50.390;30.778;2023-05-11T10:39:27;100866.38;;;17.31;23.69
46448;BME280;32145;50.390;30.778;2023-05-11T10:43:12;100855.34;;;17.48;23.62
46448;BME280;32145;50.390;30.778;2023-05-11T10:46:24;100855.84;;;17.45;23.53
46448;BME280;32145;50.390;30.778;2023-05-11T10:49:53;100856.00;;;17.33;23.00
46448;BME280;32145;50.390;30.778;2023-05-11T10:53:19;100851.44;;;16.99;24.47
46448;BME280;32145;50.390;30.778;2023-05-11T10:56:39;100857.69;;;16.77;24.49
46448;BME280;32145;50.390;30.778;2023-05-11T10:59:52;100865.75;;;16.67;23.80
46448;BME280;32145;50.390;30.778;2023-05-11T11:02:49;100857.19;;;16.63;24.22
46448;BME280;32145;50.390;30.778;2023-05-11T11:05:44;100852.56;;;16.64;24.60
46448;BME280;32145;50.390;30.778;2023-05-11T11:08:55;100850.56;;;16.76;24.09
46448;BME280;32145;50.390;30.778;2023-05-11T11:11:49;100843.38;;;17.09;24.40
46448;BME280;32145;50.390;30.778;2023-05-11T11:14:57;100843.56;;;17.47;23.55
46448;BME280;32145;50.390;30.778;2023-05-11T11:18:18;100849.19;;;17.85;23.41
46448;BME280;32145;50.390;30.778;2023-05-11T11:21:40;100830.66;;;17.98;23.30
46448;BME280;32145;50.390;30.778;2023-05-11T11:24:43;100830.88;;;18.24;22.70
46448;BME280;32145;50.390;30.778;2023-05-11T11:27:55;100831.97;;;18.55;21.70
46448;BME280;32145;50.390;30.778;2023-05-11T11:31:22;100819.78;;;18.46;21.62
46448;BME280;32145;50.390;30.778;2023-05-11T11:34:41;100827.34;;;18.66;22.45
46448;BME280;32145;50.390;30.778;2023-05-11T11:37:59;100826.66;;;18.44;21.18
46448;BME280;32145;50.390;30.778;2023-05-11T11:40:55;100825.69;;;17.95;23.68
46448;BME280;32145;50.390;30.778;2023-05-11T11:43:49;100827.09;;;17.70;23.65
46448;BME280;32145;50.390;30.778;2023-05-11T11:46:44;100831.78;;;17.47;22.93
46448;BME280;32145;50.390;30.778;2023-05-11T11:49:38;100828.91;;;17.36;23.56
46448;BME280;32145;50.390;30.778;2023-05-11T11:52:33;100829.31;;;17.23;23.78
46448;BME280;32145;50.390;30.778;2023-05-11T11:55:46;100825.97;;;17.21;23.76
46448;BME280;32145;50.390;30.778;2023-05-11T11:58:57;100826.56;;;17.23;23.07
46448;BME280;32145;50.390;30.778;2023-05-11T12:01:54;100817.69;;;17.16;23.17
46448;BME280;32145;50.390;30.778;2023-05-11T12:04:55;100816.25;;;17.30;23.59
46448;BME280;32145;50.390;30.778;2023-05-11T12:07:52;100810.47;;;17.54;24.04
46448;BME280;32145;50.390;30.778;2023-05-11T12:10:53;100814.81;;;17.77;22.95
46448;BME280;32145;50.390;30.778;2023-05-11T12:13:49;100810.00;;;17.90;22.68
46448;BME280;32145;50.390;30.778;2023-05-11T12:17:00;100800.47;;;17.98;22.17
46448;BME280;32145;50.390;30.778;2023-05-11T12:20:09;100808.41;;;17.67;22.39
46448;BME280;32145;50.390;30.778;2023-05-11T12:23:03;100808.19;;;17.46;22.96
46448;BME280;32145;50.390;30.778;2023-05-11T12:26:01;100813.75;;;17.29;23.82
46448;BME280;32145;50.390;30.778;2023-05-11T12:29:05;100807.25;;;17.12;23.56
46448;BME280;32145;50.390;30.778;2023-05-11T12:32:01;100811.50;;;17.03;24.08
46448;BME280;32145;50.390;30.778;2023-05-11T12:34:57;100803.66;;;16.90;24.31
46448;BME280;32145;50.390;30.778;2023-05-11T12:37:51;100800.28;;;16.82;24.28
46448;BME280;32145;50.390;30.778;2023-05-11T12:40:46;100805.22;;;16.85;24.15
46448;BME280;32145;50.390;30.778;2023-05-11T12:43:41;100803.91;;;16.88;24.03
46448;BME280;32145;50.390;30.778;2023-05-11T12:46:35;100799.56;;;16.92;23.97
46448;BME280;32145;50.390;30.778;2023-05-11T12:49:31;100802.75;;;17.23;23.71
46448;BME280;32145;50.390;30.778;2023-05-11T12:52:25;100800.44;;;17.65;23.84
46448;BME280;32145;50.390;30.778;2023-05-11T12:55:26;100796.06;;;17.97;23.42
46448;BME280;32145;50.390;30.778;2023-05-11T12:58:21;100794.41;;;18.23;22.64
46448;BME280;32145;50.390;30.778;2023-05-11T13:01:22;100792.34;;;18.46;21.60
46448;BME280;32145;50.390;30.778;2023-05-11T13:04:17;100800.06;;;18.49;21.91
46448;BME280;32145;50.390;30.778;2023-05-11T13:07:27;100795.91;;;18.41;22.12
46448;BME280;32145;50.390;30.778;2023-05-11T13:10:22;100792.31;;;18.08;21.96
46448;BME280;32145;50.390;30.778;2023-05-11T13:13:26;100787.56;;;17.98;21.83
46448;BME280;32145;50.390;30.778;2023-05-11T13:16:24;100787.28;;;17.95;22.12
46448;BME280;32145;50.390;30.778;2023-05-11T13:19:26;100786.41;;;17.89;22.74
46448;BME280;32145;50.390;30.778;2023-05-11T13:22:22;100787.78;;;17.91;22.68
46448;BME280;32145;50.390;30.778;2023-05-11T13:25:18;100789.66;;;17.86;23.21
46448;BME280;32145;50.390;30.778;2023-05-11T13:28:14;100785.50;;;17.78;23.17
46448;BME280;32145;50.390;30.778;2023-05-11T13:31:09;100783.78;;;17.72;23.24
46448;BME280;32145;50.390;30.778;2023-05-11T13:34:03;100778.88;;;17.74;23.22
46448;BME280;32145;50.390;30.778;2023-05-11T13:36:57;100777.81;;;17.80;23.17
46448;BME280;32145;50.390;30.778;2023-05-11T13:39:53;100776.47;;;17.83;23.55
46448;BME280;32145;50.390;30.778;2023-05-11T13:42:47;100779.34;;;17.65;23.14
46448;BME280;32145;50.390;30.778;2023-05-11T13:45:42;100782.00;;;17.60;23.49
46448;BME280;32145;50.390;30.778;2023-05-11T13:48:36;100780.94;;;17.61;23.85
46448;BME280;32145;50.390;30.778;2023-05-11T13:51:31;100775.47;;;17.61;23.46
46448;BME280;32145;50.390;30.778;2023-05-11T13:54:27;100781.81;;;17.67;23.68
46448;BME280;32145;50.390;30.778;2023-05-11T13:57:23;100778.41;;;17.82;23.38
46448;BME280;32145;50.390;30.778;2023-05-11T14:00:17;100775.16;;;17.90;23.44
46448;BME280;32145;50.390;30.778;2023-05-11T14:03:12;100773.06;;;18.03;23.54
46448;BME280;32145;50.390;30.778;2023-05-11T14:06:06;100763.63;;;18.21;23.27
46448;BME280;32145;50.390;30.778;2023-05-11T14:09:00;100768.91;;;18.28;22.92
46448;BME280;32145;50.390;30.778;2023-05-11T14:11:55;100771.72;;;18.38;22.48
46448;BME280;32145;50.390;30.778;2023-05-11T14:14:52;100762.13;;;18.41;22.32
46448;BME280;32145;50.390;30.778;2023-05-11T14:17:49;100761.38;;;18.51;22.54
46448;BME280;32145;50.390;30.778;2023-05-11T14:20:45;100770.69;;;18.50;23.08
46448;BME280;32145;50.390;30.778;2023-05-11T14:23:42;100770.09;;;18.42;23.00
46448;BME280;32145;50.390;30.778;2023-05-11T14:26:38;100761.34;;;18.46;23.31
46448;BME280;32145;50.390;30.778;2023-05-11T14:29:34;100766.16;;;18.28;22.83
46448;BME280;32145;50.390;30.778;2023-05-11T14:32:30;100765.38;;;18.00;22.94
46448;BME280;32145;50.390;30.778;2023-05-11T14:35:25;100757.63;;;17.91;23.46
46448;BME280;32145;50.390;30.778;2023-05-11T14:38:21;100751.34;;;17.96;23.65
46448;BME280;32145;50.390;30.778;2023-05-11T14:41:17;100758.34;;;18.09;23.28
46448;BME280;32145;50.390;30.778;2023-05-11T14:44:11;100754.44;;;18.05;23.18
46448;BME280;32145;50.390;30.778;2023-05-11T14:47:06;100751.91;;;17.98;23.52
46448;BME280;32145;50.390;30.778;2023-05-11T14:50:02;100756.09;;;18.06;23.43
46448;BME280;32145;50.390;30.778;2023-05-11T14:52:56;100758.69;;;17.85;23.51
46448;BME280;32145;50.390;30.778;2023-05-11T14:55:53;100753.72;;;17.55;24.47
46448;BME280;32145;50.390;30.778;2023-05-11T14:58:49;100747.47;;;17.32;24.53
46448;BME280;32145;50.390;30.778;2023-05-11T15:01:46;100751.44;;;17.19;24.93
46448;BME280;32145;50.390;30.778;2023-05-11T15:04:42;100749.72;;;17.12;24.20
46448;BME280;32145;50.390;30.778;2023-05-11T15:07:38;100754.47;;;17.22;24.67
46448;BME280;32145;50.390;30.778;2023-05-11T15:10:32;100745.09;;;17.41;24.40
46448;BME280;32145;50.390;30.778;2023-05-11T15:13:26;100754.25;;;17.84;23.98
46448;BME280;32145;50.390;30.778;2023-05-11T15:16:20;100744.25;;;18.33;23.33
46448;BME280;32145;50.390;30.778;2023-05-11T15:19:15;100742.84;;;18.84;23.47
46448;BME280;32145;50.390;30.778;2023-05-11T15:22:11;100740.81;;;19.23;22.96